Time;durP1;ratioP1;P1;durP2;ratioP2;P2;SDS_P1;SDS_P2;PMS_P1;PMS_P2;Temp;Humidity;BMP_temperature;BMP_pressure;BME280_temperature;BME280_humidity;BME280_pressure;Samples;Min_cycle;Max_cycle;Signal;HPM_P1;HPM_P2
2023/05/12 00:00:55;;;;;;;17.00;9.05;;;;;;;;;;5152227;27;20049;-80
2023/05/12 00:03:21;;;;;;;16.02;8.50;;;;;;;;;;5104469;27;20051;-83
2023/05/12 00:05:47;;;;;;;13.20;7.82;;;;;;;;;;5133421;27;20038;-80
2023/05/12 00:08:13;;;;;;;14.30;7.78;;;;;;;;;;5129526;27;20463;-82
2023/05/12 00:10:39;;;;;;;14.98;8.55;;;;;;;;;;5149278;27;20043;-81
2023/05/12 00:13:06;;;;;;;14.90;8.23;;;;;;;;;;5133932;27;20107;-81
2023/05/12 00:15:32;;;;;;;13.35;7.93;;;;;;;;;;5110773;27;20049;-81
2023/05/12 00:17:58;;;;;;;16.08;7.78;;;;;;;;;;5148217;27;20503;-83
2023/05/12 00:20:24;;;;;;;13.90;7.78;;;;;;;;;;5130186;27;20091;-77
2023/05/12 00:22:50;;;;;;;14.63;6.95;;;;;;;;;;5136936;27;20031;-78
2023/05/12 00:25:16;;;;;;;11.30;6.53;;;;;;;;;;5120697;27;20031;-78
2023/05/12 00:27:42;;;;;;;8.80;5.57;;;;;;;;;;5103372;27;20514;-78
2023/05/12 00:30:09;;;;;;;15.88;7.32;;;;;;;;;;5119857;27;20168;-79
2023/05/12 00:32:35;;;;;;;14.23;6.72;;;;;;;;;;5116066;27;20066;-75
2023/05/12 00:35:01;;;;;;;9.88;6.22;;;;;;;;;;5113972;27;20143;-77
2023/05/12 00:37:27;;;;;;;12.40;6.28;;;;;;;;;;5127515;27;20054;-80
2023/05/12 00:39:53;;;;;;;9.02;5.30;;;;;;;;;;5136515;27;20172;-80
2023/05/12 00:42:19;;;;;;;10.57;5.63;;;;;;;;;;5119185;27;20066;-77
2023/05/12 00:44:46;;;;;;;9.35;5.82;;;;;;;;;;5128575;27;20421;-78
2023/05/12 00:47:13;;;;;;;10.43;5.97;;;;;;;;;;5115968;27;20099;-83
2023/05/12 00:49:41;;;;;;;11.20;6.00;;;;;;;;;;5133148;27;20046;-82
2023/05/12 00:52:08;;;;;;;11.70;5.63;;;;;;;;;;5133030;27;20089;-77
2023/05/12 00:54:35;;;;;;;9.50;5.00;;;;;;;;;;5140170;27;20080;-78
2023/05/12 00:57:01;;;;;;;11.20;5.70;;;;;;;;;;5131817;27;20077;-79
2023/05/12 00:59:28;;;;;;;9.98;5.25;;;;;;;;;;5150383;27;20050;-79
2023/05/12 01:01:54;;;;;;;8.48;5.05;;;;;;;;;;5133829;27;20483;-76
2023/05/12 01:04:21;;;;;;;7.88;4.45;;;;;;;;;;5119489;27;20043;-77
2023/05/12 01:06:55;;;;;;;7.95;4.50;;;;;;;;;;5104875;27;20042;-76
2023/05/12 01:09:21;;;;;;;8.07;4.70;;;;;;;;;;5135500;27;20046;-77
2023/05/12 01:11:47;;;;;;;7.82;4.18;;;;;;;;;;5113561;27;20039;-80
2023/05/12 01:14:13;;;;;;;8.85;4.85;;;;;;;;;;5127056;27;20047;-79
2023/05/12 01:16:41;;;;;;;7.95;4.53;;;;;;;;;;5119738;27;20039;-81
2023/05/12 01:19:09;;;;;;;8.38;4.85;;;;;;;;;;5135852;27;20038;-81
2023/05/12 01:21:36;;;;;;;8.57;4.72;;;;;;;;;;5135430;27;20054;-77
2023/05/12 01:24:05;;;;;;;8.93;4.55;;;;;;;;;;5135909;27;20131;-77
2023/05/12 01:26:32;;;;;;;7.93;5.03;;;;;;;;;;5153722;27;20074;-78
2023/05/12 01:29:00;;;;;;;12.98;5.88;;;;;;;;;;5124524;27;20483;-84
2023/05/12 01:31:26;;;;;;;11.00;6.05;;;;;;;;;;5146247;27;20114;-79
2023/05/12 01:33:52;;;;;;;10.15;5.57;;;;;;;;;;5151203;27;20074;-78
2023/05/12 01:36:18;;;;;;;9.70;5.55;;;;;;;;;;5135197;27;20419;-78
2023/05/12 01:38:45;;;;;;;12.88;6.70;;;;;;;;;;5114196;27;20086;-77
2023/05/12 01:41:11;;;;;;;14.68;7.50;;;;;;;;;;5106920;28;20047;-76
2023/05/12 01:43:37;;;;;;;19.48;8.95;;;;;;;;;;5122538;28;20122;-76
2023/05/12 01:46:06;;;;;;;16.80;9.18;;;;;;;;;;5147895;27;20117;-83
2023/05/12 01:48:32;;;;;;;18.85;9.38;;;;;;;;;;5123631;27;20088;-77
2023/05/12 01:51:01;;;;;;;23.63;10.60;;;;;;;;;;5126654;28;20133;-76
2023/05/12 01:53:27;;;;;;;25.70;11.73;;;;;;;;;;5133017;27;20538;-74
2023/05/12 01:55:53;;;;;;;20.83;10.95;;;;;;;;;;5133997;27;20042;-76
2023/05/12 01:58:19;;;;;;;20.38;10.73;;;;;;;;;;5145007;27;20083;-77
2023/05/12 02:00:45;;;;;;;28.75;12.60;;;;;;;;;;5131931;27;20051;-77
2023/05/12 02:03:11;;;;;;;28.88;13.52;;;;;;;;;;5127811;27;20042;-75
2023/05/12 02:05:37;;;;;;;32.58;14.20;;;;;;;;;;5149606;27;20043;-78
2023/05/12 02:08:03;;;;;;;33.42;14.20;;;;;;;;;;5133977;27;20034;-77
2023/05/12 02:10:30;;;;;;;26.85;13.60;;;;;;;;;;5152929;27;20041;-77
2023/05/12 02:12:56;;;;;;;27.95;13.88;;;;;;;;;;5114674;28;20387;-76
2023/05/12 02:15:22;;;;;;;43.25;16.88;;;;;;;;;;5103706;27;20123;-75
2023/05/12 02:17:52;;;;;;;36.67;17.08;;;;;;;;;;5148056;27;20042;-77
2023/05/12 02:20:18;;;;;;;37.17;16.90;;;;;;;;;;5101823;28;20047;-80
2023/05/12 02:22:44;;;;;;;38.60;17.67;;;;;;;;;;5098539;27;20042;-79
2023/05/12 02:25:11;;;;;;;35.25;17.10;;;;;;;;;;5131607;27;20077;-76
2023/05/12 02:27:37;;;;;;;40.45;18.33;;;;;;;;;;5099198;27;20471;-77
2023/05/12 02:30:03;;;;;;;42.33;18.33;;;;;;;;;;5130742;27;20462;-74
2023/05/12 02:32:29;;;;;;;45.53;19.33;;;;;;;;;;5124789;28;20050;-77
2023/05/12 02:34:56;;;;;;;43.30;19.60;;;;;;;;;;5101821;27;20034;-76
2023/05/12 02:37:22;;;;;;;44.15;19.48;;;;;;;;;;5126645;27;20051;-76
2023/05/12 02:39:48;;;;;;;47.08;20.35;;;;;;;;;;5131258;27;20406;-77
2023/05/12 02:42:14;;;;;;;48.67;20.73;;;;;;;;;;5116234;27;20491;-76
2023/05/12 02:44:40;;;;;;;45.55;19.88;;;;;;;;;;5119193;27;20042;-79
2023/05/12 02:47:06;;;;;;;50.22;21.02;;;;;;;;;;5112250;27;20043;-79
2023/05/12 02:49:32;;;;;;;48.10;22.10;;;;;;;;;;5150198;27;20509;-79
2023/05/12 02:51:59;;;;;;;54.65;22.02;;;;;;;;;;5121217;27;20055;-79
2023/05/12 02:54:25;;;;;;;58.60;22.75;;;;;;;;;;5133891;27;20122;-77
2023/05/12 02:56:52;;;;;;;49.25;20.63;;;;;;;;;;5131914;27;20094;-77
2023/05/12 02:59:18;;;;;;;52.72;20.95;;;;;;;;;;5155537;27;20439;-77
2023/05/12 03:01:44;;;;;;;47.75;21.50;;;;;;;;;;5123253;27;20135;-77
2023/05/12 03:04:10;;;;;;;54.00;22.40;;;;;;;;;;5130446;27;20047;-77
2023/05/12 03:06:36;;;;;;;50.25;21.85;;;;;;;;;;5114920;27;20039;-79
2023/05/12 03:09:02;;;;;;;49.78;21.50;;;;;;;;;;5132576;27;20039;-78
2023/05/12 03:11:28;;;;;;;54.00;21.85;;;;;;;;;;5135924;27;20119;-78
2023/05/12 03:13:54;;;;;;;56.97;23.10;;;;;;;;;;5117599;27;20043;-77
2023/05/12 03:16:21;;;;;;;60.92;24.08;;;;;;;;;;5134648;27;20066;-79
2023/05/12 03:18:47;;;;;;;63.60;24.02;;;;;;;;;;5135961;27;20502;-79
2023/05/12 03:21:13;;;;;;;61.33;24.77;;;;;;;;;;5144495;27;20545;-79
2023/05/12 03:23:39;;;;;;;62.72;24.13;;;;;;;;;;5137688;27;20039;-76
2023/05/12 03:26:05;;;;;;;57.15;23.88;;;;;;;;;;5117662;27;20042;-78
2023/05/12 03:28:31;;;;;;;54.75;22.15;;;;;;;;;;5129964;27;20125;-76
2023/05/12 03:30:57;;;;;;;64.00;23.95;;;;;;;;;;5126065;27;20039;-75
2023/05/12 03:33:23;;;;;;;64.28;24.42;;;;;;;;;;5120440;27;20047;-76
2023/05/12 03:35:49;;;;;;;65.65;24.17;;;;;;;;;;5137407;27;20046;-75
2023/05/12 03:38:15;;;;;;;73.47;23.98;;;;;;;;;;5137338;27;20049;-78
2023/05/12 03:40:41;;;;;;;62.05;23.63;;;;;;;;;;5137834;27;20038;-80
2023/05/12 03:43:07;;;;;;;57.97;23.15;;;;;;;;;;5120256;27;20042;-81
2023/05/12 03:45:33;;;;;;;54.70;22.45;;;;;;;;;;5115626;27;20106;-81
2023/05/12 03:48:00;;;;;;;61.42;23.92;;;;;;;;;;5137478;27;20046;-75
2023/05/12 03:50:26;;;;;;;67.55;24.98;;;;;;;;;;5137924;27;20039;-78
2023/05/12 03:52:54;;;;;;;69.13;24.08;;;;;;;;;;5131776;27;20039;-75
2023/05/12 03:55:21;;;;;;;56.47;22.73;;;;;;;;;;5117379;27;20045;-75
2023/05/12 03:57:48;;;;;;;64.53;23.77;;;;;;;;;;5132459;27;20399;-76
2023/05/12 04:00:14;;;;;;;59.25;23.45;;;;;;;;;;5146316;27;20417;-76
2023/05/12 04:02:40;;;;;;;60.42;24.48;;;;;;;;;;5124961;27;20103;-75
2023/05/12 04:05:07;;;;;;;79.53;25.67;;;;;;;;;;5141009;27;20027;-76
2023/05/12 04:07:33;;;;;;;71.72;25.00;;;;;;;;;;5137641;27;20034;-74
2023/05/12 04:10:00;;;;;;;74.97;25.50;;;;;;;;;;5120735;27;20110;-76
2023/05/12 04:12:26;;;;;;;81.55;26.60;;;;;;;;;;5156646;27;20500;-74
2023/05/12 04:14:52;;;;;;;74.63;26.38;;;;;;;;;;5123684;27;20015;-75
2023/05/12 04:17:18;;;;;;;77.30;26.13;;;;;;;;;;5122613;27;20070;-78
2023/05/12 04:19:44;;;;;;;78.50;26.52;;;;;;;;;;5124858;27;20042;-75
2023/05/12 04:22:10;;;;;;;80.00;26.23;;;;;;;;;;5117435;27;20039;-77
2023/05/12 04:24:37;;;;;;;73.30;26.35;;;;;;;;;;5112227;27;20042;-78
2023/05/12 04:27:03;;;;;;;65.53;24.75;;;;;;;;;;5130869;27;20486;-78
2023/05/12 04:29:29;;;;;;;73.40;26.55;;;;;;;;;;5132248;27;20368;-81
2023/05/12 04:31:56;;;;;;;80.75;27.75;;;;;;;;;;5101989;27;20034;-77
2023/05/12 04:34:22;;;;;;;86.55;28.05;;;;;;;;;;5129874;27;20091;-76
2023/05/12 04:36:48;;;;;;;76.72;25.77;;;;;;;;;;5132328;27;20066;-81
2023/05/12 04:39:14;;;;;;;66.00;24.60;;;;;;;;;;5147229;27;20030;-81
2023/05/12 04:41:40;;;;;;;75.88;27.33;;;;;;;;;;5139944;27;20560;-79
2023/05/12 04:44:06;;;;;;;60.20;25.52;;;;;;;;;;5124617;27;20035;-77
2023/05/12 04:46:32;;;;;;;67.80;26.25;;;;;;;;;;5114402;27;20042;-76
2023/05/12 04:48:58;;;;;;;70.30;26.10;;;;;;;;;;5154406;27;20047;-80
2023/05/12 04:51:24;;;;;;;68.60;26.13;;;;;;;;;;5153136;27;20043;-81
2023/05/12 04:53:50;;;;;;;63.38;25.45;;;;;;;;;;5141623;27;20042;-75
2023/05/12 04:56:16;;;;;;;64.35;26.55;;;;;;;;;;5152891;27;20484;-76
2023/05/12 04:58:43;;;;;;;60.90;25.70;;;;;;;;;;5135127;27;20035;-77
2023/05/12 05:01:11;;;;;;;59.63;24.67;;;;;;;;;;5125428;27;20544;-77
2023/05/12 05:03:37;;;;;;;58.83;24.65;;;;;;;;;;5117372;27;20122;-76
2023/05/12 05:06:03;;;;;;;56.17;24.60;;;;;;;;;;5116292;27;20061;-77
2023/05/12 05:08:29;;;;;;;63.40;25.45;;;;;;;;;;5115620;27;20117;-76
2023/05/12 05:10:55;;;;;;;56.20;25.38;;;;;;;;;;5129493;27;20073;-76
2023/05/12 05:13:21;;;;;;;53.30;24.33;;;;;;;;;;5115357;27;20429;-76
2023/05/12 05:15:51;;;;;;;55.70;25.15;;;;;;;;;;5082959;27;20042;-76
2023/05/12 05:18:17;;;;;;;54.08;24.65;;;;;;;;;;5101592;27;20050;-77
2023/05/12 05:20:44;;;;;;;55.63;25.33;;;;;;;;;;5145644;27;20039;-79
2023/05/12 05:23:10;;;;;;;59.72;25.50;;;;;;;;;;5118293;27;20039;-76
2023/05/12 05:25:38;;;;;;;52.80;24.70;;;;;;;;;;5154204;27;20043;-76
2023/05/12 05:28:04;;;;;;;52.20;23.73;;;;;;;;;;5120872;27;20118;-78
2023/05/12 05:30:30;;;;;;;55.40;24.88;;;;;;;;;;5127228;27;20046;-76
2023/05/12 05:32:56;;;;;;;49.08;24.02;;;;;;;;;;5129150;27;20424;-76
2023/05/12 05:35:22;;;;;;;51.05;24.27;;;;;;;;;;5135676;27;20091;-79
2023/05/12 05:37:52;;;;;;;46.35;23.50;;;;;;;;;;5148836;27;20035;-79
2023/05/12 05:40:18;;;;;;;51.08;22.65;;;;;;;;;;5109315;27;20035;-76
2023/05/12 05:42:44;;;;;;;48.15;24.08;;;;;;;;;;5128216;27;20046;-79
2023/05/12 05:45:11;;;;;;;53.00;23.73;;;;;;;;;;5116512;27;20049;-77
2023/05/12 05:47:37;;;;;;;50.97;23.83;;;;;;;;;;5135106;27;20045;-74
2023/05/12 05:50:03;;;;;;;48.80;23.77;;;;;;;;;;5128762;28;20054;-79
2023/05/12 05:52:30;;;;;;;48.72;22.90;;;;;;;;;;5136788;27;20171;-79
2023/05/12 05:54:56;;;;;;;41.33;21.63;;;;;;;;;;5124681;28;20038;-81
2023/05/12 05:57:22;;;;;;;43.75;22.58;;;;;;;;;;5137181;27;20031;-75
2023/05/12 05:59:48;;;;;;;45.47;22.42;;;;;;;;;;5133044;27;20031;-77
2023/05/12 06:02:15;;;;;;;52.67;22.83;;;;;;;;;;5148566;27;20067;-80
2023/05/12 06:04:41;;;;;;;46.78;23.15;;;;;;;;;;5135315;27;20043;-76
2023/05/12 06:07:07;;;;;;;46.45;21.63;;;;;;;;;;5147361;27;20070;-76
2023/05/12 06:09:33;;;;;;;45.03;22.45;;;;;;;;;;5121552;28;20099;-76
2023/05/12 06:11:59;;;;;;;48.47;23.95;;;;;;;;;;5128924;27;20047;-76
2023/05/12 06:14:25;;;;;;;46.38;21.58;;;;;;;;;;5142784;27;20035;-76
2023/05/12 06:16:51;;;;;;;44.17;22.73;;;;;;;;;;5123210;27;20506;-82
2023/05/12 06:19:17;;;;;;;40.92;21.02;;;;;;;;;;5127873;27;20038;-81
2023/05/12 06:21:43;;;;;;;39.70;20.20;;;;;;;;;;5136911;27;20063;-75
2023/05/12 06:24:10;;;;;;;43.85;21.27;;;;;;;;;;5089538;27;20038;-78
2023/05/12 06:26:36;;;;;;;39.03;21.40;;;;;;;;;;5150417;27;20499;-76
2023/05/12 06:29:02;;;;;;;42.88;21.05;;;;;;;;;;5135992;27;20091;-81
2023/05/12 06:31:28;;;;;;;46.67;22.58;;;;;;;;;;5133691;27;20041;-79
2023/05/12 06:33:54;;;;;;;46.05;21.30;;;;;;;;;;5129900;27;20046;-76
2023/05/12 06:36:21;;;;;;;48.20;23.85;;;;;;;;;;5125887;27;20047;-78
2023/05/12 06:38:47;;;;;;;43.38;21.70;;;;;;;;;;5127356;27;20042;-77
2023/05/12 06:41:13;;;;;;;45.65;22.58;;;;;;;;;;5133395;27;20045;-77
2023/05/12 06:43:39;;;;;;;46.38;23.02;;;;;;;;;;5135662;27;20035;-81
2023/05/12 06:46:05;;;;;;;44.78;22.52;;;;;;;;;;5128978;27;20031;-81
2023/05/12 06:48:31;;;;;;;45.72;23.13;;;;;;;;;;5130366;27;20083;-81
2023/05/12 06:50:58;;;;;;;42.17;21.20;;;;;;;;;;5118187;27;20055;-75
2023/05/12 06:53:24;;;;;;;42.83;21.35;;;;;;;;;;5132115;27;20498;-77
2023/05/12 06:55:52;;;;;;;42.55;21.48;;;;;;;;;;5115069;28;20164;-76
2023/05/12 06:58:20;;;;;;;42.72;21.85;;;;;;;;;;5129419;27;20442;-79
2023/05/12 07:00:47;;;;;;;44.53;23.17;;;;;;;;;;5135837;27;20443;-82
2023/05/12 07:03:13;;;;;;;43.60;22.15;;;;;;;;;;5133117;27;20503;-82
2023/05/12 07:05:40;;;;;;;45.78;22.38;;;;;;;;;;5121037;27;20041;-75
2023/05/12 07:08:06;;;;;;;42.10;21.75;;;;;;;;;;5135597;27;20436;-80
2023/05/12 07:10:34;;;;;;;38.72;20.70;;;;;;;;;;5124092;27;20392;-75
2023/05/12 07:13:00;;;;;;;44.70;22.55;;;;;;;;;;5125510;27;20050;-80
2023/05/12 07:15:26;;;;;;;37.67;20.40;;;;;;;;;;5121937;27;20096;-76
2023/05/12 07:17:54;;;;;;;40.72;21.05;;;;;;;;;;5115403;28;20042;-81
2023/05/12 07:20:20;;;;;;;41.00;21.85;;;;;;;;;;5121388;27;20045;-77
2023/05/12 07:22:46;;;;;;;40.85;20.83;;;;;;;;;;5123062;27;20091;-76
2023/05/12 07:25:12;;;;;;;39.55;20.55;;;;;;;;;;5118495;27;20031;-81
2023/05/12 07:27:39;;;;;;;40.80;21.35;;;;;;;;;;5119433;27;20035;-82
2023/05/12 07:30:05;;;;;;;43.05;21.13;;;;;;;;;;5114548;27;20514;-79
2023/05/12 07:32:32;;;;;;;41.30;21.17;;;;;;;;;;5133968;27;20039;-76
2023/05/12 07:34:58;;;;;;;41.58;21.38;;;;;;;;;;5133301;27;20099;-76
2023/05/12 07:37:24;;;;;;;44.47;21.95;;;;;;;;;;5134049;27;20044;-81
2023/05/12 07:39:50;;;;;;;36.08;20.42;;;;;;;;;;5135659;27;20273;-81
2023/05/12 07:42:16;;;;;;;43.60;23.20;;;;;;;;;;5133468;27;20043;-82
2023/05/12 07:44:42;;;;;;;43.45;21.40;;;;;;;;;;5118307;27;20067;-82
2023/05/12 07:47:08;;;;;;;42.00;21.95;;;;;;;;;;5121481;27;20046;-81
2023/05/12 07:49:35;;;;;;;41.88;21.98;;;;;;;;;;5153952;27;20114;-75
2023/05/12 07:52:01;;;;;;;43.38;22.27;;;;;;;;;;5133563;27;20061;-81
2023/05/12 07:54:27;;;;;;;37.08;19.90;;;;;;;;;;5155113;27;20478;-79
2023/05/12 07:56:53;;;;;;;44.15;22.95;;;;;;;;;;5157036;27;20123;-76
2023/05/12 07:59:19;;;;;;;40.20;22.85;;;;;;;;;;5136296;27;20034;-80
2023/05/12 08:01:45;;;;;;;38.83;21.33;;;;;;;;;;5124306;27;20039;-76
2023/05/12 08:04:11;;;;;;;42.35;21.77;;;;;;;;;;5155613;27;20118;-80
2023/05/12 08:06:37;;;;;;;42.17;22.50;;;;;;;;;;5132178;27;20495;-77
2023/05/12 08:09:03;;;;;;;41.45;21.52;;;;;;;;;;5153532;27;20139;-76
2023/05/12 08:11:29;;;;;;;43.65;22.63;;;;;;;;;;5111970;27;20046;-80
2023/05/12 08:13:55;;;;;;;35.08;20.73;;;;;;;;;;5125919;27;20506;-82
2023/05/12 08:16:22;;;;;;;36.40;20.40;;;;;;;;;;5118860;27;20039;-77
2023/05/12 08:18:48;;;;;;;36.13;21.67;;;;;;;;;;5135518;27;20046;-76
2023/05/12 08:21:14;;;;;;;33.90;20.30;;;;;;;;;;5122045;27;20031;-80
2023/05/12 08:23:40;;;;;;;39.88;21.25;;;;;;;;;;5153412;27;20046;-81
2023/05/12 08:26:06;;;;;;;37.50;21.25;;;;;;;;;;5154644;27;20038;-79
2023/05/12 08:28:33;;;;;;;41.80;23.27;;;;;;;;;;5125025;27;20064;-79
2023/05/12 08:30:59;;;;;;;37.65;21.10;;;;;;;;;;5134925;27;20039;-81
2023/05/12 08:33:25;;;;;;;32.65;19.35;;;;;;;;;;5134062;27;20073;-82
2023/05/12 08:35:51;;;;;;;30.08;18.73;;;;;;;;;;5136114;27;20047;-80
2023/05/12 08:38:17;;;;;;;32.20;19.05;;;;;;;;;;5154139;27;20031;-79
2023/05/12 08:40:52;;;;;;;32.03;19.35;;;;;;;;;;5155089;27;20039;-80
2023/05/12 08:43:28;;;;;;;29.15;19.27;;;;;;;;;;5144078;27;20035;-80
2023/05/12 08:45:57;;;;;;;30.00;19.23;;;;;;;;;;5143435;27;20042;-78
2023/05/12 08:48:26;;;;;;;26.67;17.85;;;;;;;;;;5133500;27;20057;-76
2023/05/12 08:50:53;;;;;;;27.27;17.58;;;;;;;;;;5154651;27;20424;-76
2023/05/12 08:53:24;;;;;;;25.95;17.75;;;;;;;;;;5135956;27;20509;-77
2023/05/12 08:55:50;;;;;;;30.67;18.17;;;;;;;;;;5154596;27;20049;-76
2023/05/12 08:58:16;;;;;;;30.00;18.90;;;;;;;;;;5154915;27;20039;-79
2023/05/12 09:00:43;;;;;;;30.10;19.13;;;;;;;;;;5154600;27;20078;-79
2023/05/12 09:03:12;;;;;;;24.67;17.98;;;;;;;;;;5122828;27;20027;-81
2023/05/12 09:05:41;;;;;;;25.63;17.55;;;;;;;;;;5126854;27;20031;-76
2023/05/12 09:08:09;;;;;;;25.13;17.38;;;;;;;;;;5133671;27;20103;-77
2023/05/12 09:10:35;;;;;;;24.27;17.13;;;;;;;;;;5153797;27;20039;-77
2023/05/12 09:13:08;;;;;;;29.50;17.65;;;;;;;;;;5113096;27;20563;-78
2023/05/12 09:15:38;;;;;;;23.67;17.25;;;;;;;;;;5112767;27;20488;-79
2023/05/12 09:18:04;;;;;;;25.95;18.08;;;;;;;;;;5133775;27;20038;-78
2023/05/12 09:20:30;;;;;;;26.02;17.88;;;;;;;;;;5117783;27;20035;-77
2023/05/12 09:22:57;;;;;;;23.95;17.10;;;;;;;;;;5123214;27;20479;-77
2023/05/12 09:25:23;;;;;;;23.23;16.85;;;;;;;;;;5149554;27;20035;-76
2023/05/12 09:27:53;;;;;;;20.73;15.63;;;;;;;;;;5135760;27;20039;-80
2023/05/12 09:30:28;;;;;;;23.80;16.80;;;;;;;;;;5122923;27;20043;-76
2023/05/12 09:33:04;;;;;;;23.97;16.23;;;;;;;;;;5115352;27;20042;-77
2023/05/12 09:35:30;;;;;;;21.45;15.93;;;;;;;;;;5124906;27;20081;-76
2023/05/12 09:37:56;;;;;;;21.40;16.23;;;;;;;;;;5131365;27;20047;-76
2023/05/12 09:40:22;;;;;;;22.15;16.20;;;;;;;;;;5135830;27;20061;-81
2023/05/12 09:42:49;;;;;;;27.13;17.98;;;;;;;;;;5135719;27;20042;-81
2023/05/12 09:45:15;;;;;;;22.08;16.30;;;;;;;;;;5098610;28;20031;-80
2023/05/12 09:47:42;;;;;;;22.50;16.20;;;;;;;;;;5127254;27;20035;-80
2023/05/12 09:50:08;;;;;;;24.55;17.85;;;;;;;;;;5137662;27;20494;-81
2023/05/12 09:52:38;;;;;;;22.42;16.45;;;;;;;;;;5152732;27;20054;-82
2023/05/12 09:55:12;;;;;;;24.33;17.00;;;;;;;;;;5122405;27;20469;-81
2023/05/12 09:57:42;;;;;;;21.05;15.75;;;;;;;;;;5139699;27;20039;-82
2023/05/12 10:00:10;;;;;;;20.90;15.55;;;;;;;;;;5156165;27;20035;-81
2023/05/12 10:02:40;;;;;;;16.30;13.32;;;;;;;;;;5110914;27;20039;-82
2023/05/12 10:05:07;;;;;;;19.30;13.93;;;;;;;;;;5127755;27;20421;-83
2023/05/12 10:07:34;;;;;;;20.63;14.00;;;;;;;;;;5139726;27;20407;-79
2023/05/12 10:10:03;;;;;;;18.20;13.80;;;;;;;;;;5120563;27;20085;-81
2023/05/12 10:12:29;;;;;;;17.75;13.77;;;;;;;;;;5119052;27;20047;-80
2023/05/12 10:14:56;;;;;;;18.15;13.77;;;;;;;;;;5128410;27;20030;-79
2023/05/12 10:17:22;;;;;;;16.10;13.45;;;;;;;;;;5130863;27;20035;-82
2023/05/12 10:19:49;;;;;;;20.38;13.95;;;;;;;;;;5137661;27;20070;-81
2023/05/12 10:22:16;;;;;;;19.17;14.07;;;;;;;;;;5119215;27;20479;-79
2023/05/12 10:24:44;;;;;;;18.13;13.57;;;;;;;;;;5143531;27;20038;-81
2023/05/12 10:27:11;;;;;;;21.02;15.55;;;;;;;;;;5132736;27;20502;-79
2023/05/12 10:29:38;;;;;;;18.95;14.10;;;;;;;;;;5142744;27;20043;-78
2023/05/12 10:32:05;;;;;;;17.60;13.63;;;;;;;;;;5155654;27;20118;-78
2023/05/12 10:34:35;;;;;;;19.05;14.35;;;;;;;;;;5134064;27;20529;-78
2023/05/12 10:37:07;;;;;;;20.25;14.77;;;;;;;;;;5134168;27;20049;-79
2023/05/12 10:39:33;;;;;;;18.90;13.43;;;;;;;;;;5136312;27;20042;-80
2023/05/12 10:42:05;;;;;;;16.80;14.40;;;;;;;;;;5126723;27;20068;-80
2023/05/12 10:44:32;;;;;;;17.83;13.65;;;;;;;;;;5120921;27;20042;-79
2023/05/12 10:47:01;;;;;;;15.65;12.38;;;;;;;;;;5125099;27;20078;-79
2023/05/12 10:49:40;;;;;;;14.48;11.75;;;;;;;;;;5134803;27;20508;-78
2023/05/12 10:52:06;;;;;;;15.90;12.38;;;;;;;;;;5130111;27;20103;-78
2023/05/12 10:54:43;;;;;;;13.70;11.23;;;;;;;;;;5156771;27;20562;-81
2023/05/12 10:57:13;;;;;;;11.60;9.82;;;;;;;;;;5157268;27;20491;-76
2023/05/12 10:59:56;;;;;;;17.83;11.10;;;;;;;;;;5134419;27;20035;-82
2023/05/12 11:02:29;;;;;;;13.57;11.25;;;;;;;;;;5147916;27;20042;-80
2023/05/12 11:04:59;;;;;;;16.00;11.98;;;;;;;;;;5138283;27;20038;-81
2023/05/12 11:07:26;;;;;;;10.75;9.48;;;;;;;;;;5109614;27;20043;-79
2023/05/12 11:09:53;;;;;;;11.38;9.88;;;;;;;;;;5121025;27;20049;-78
2023/05/12 11:12:20;;;;;;;11.27;8.77;;;;;;;;;;5137382;27;20084;-78
2023/05/12 11:14:46;;;;;;;12.57;9.88;;;;;;;;;;5137086;27;20041;-77
2023/05/12 11:17:13;;;;;;;15.43;10.88;;;;;;;;;;5126087;27;20041;-79
2023/05/12 11:19:40;;;;;;;11.68;10.27;;;;;;;;;;5130543;27;20050;-79
2023/05/12 11:22:10;;;;;;;10.63;8.98;;;;;;;;;;5152263;27;20514;-78
2023/05/12 11:24:36;;;;;;;11.27;9.38;;;;;;;;;;5121748;27;20035;-81
2023/05/12 11:27:03;;;;;;;8.82;6.93;;;;;;;;;;5140590;27;20479;-78
2023/05/12 11:29:30;;;;;;;15.23;9.82;;;;;;;;;;5156309;27;20394;-76
2023/05/12 11:31:57;;;;;;;12.40;9.35;;;;;;;;;;5137571;27;20034;-82
2023/05/12 11:34:26;;;;;;;11.77;9.80;;;;;;;;;;5136547;27;20116;-76
2023/05/12 11:36:54;;;;;;;11.60;9.27;;;;;;;;;;5156353;27;20083;-78
2023/05/12 11:39:21;;;;;;;11.35;9.80;;;;;;;;;;5107145;27;20042;-80
2023/05/12 11:41:48;;;;;;;11.23;9.38;;;;;;;;;;5116809;27;20043;-79
2023/05/12 11:44:15;;;;;;;10.27;9.23;;;;;;;;;;5100840;27;20043;-77
2023/05/12 11:46:41;;;;;;;10.60;9.50;;;;;;;;;;5117426;27;20092;-81
2023/05/12 11:49:11;;;;;;;11.65;9.75;;;;;;;;;;5116833;27;20062;-78
2023/05/12 11:51:41;;;;;;;10.10;8.98;;;;;;;;;;5121390;27;20073;-81
2023/05/12 11:54:08;;;;;;;13.65;10.35;;;;;;;;;;5136256;27;20045;-79
2023/05/12 11:56:34;;;;;;;13.07;11.68;;;;;;;;;;5137932;27;20042;-80
2023/05/12 11:59:00;;;;;;;13.23;10.23;;;;;;;;;;5137568;27;20039;-80
2023/05/12 12:01:26;;;;;;;10.93;7.90;;;;;;;;;;5145576;27;20038;-83
2023/05/12 12:03:53;;;;;;;10.13;8.35;;;;;;;;;;5122883;27;20066;-80
2023/05/12 12:06:20;;;;;;;8.48;6.93;;;;;;;;;;5119423;27;20554;-83
2023/05/12 12:08:53;;;;;;;10.25;7.95;;;;;;;;;;5155962;27;20432;-80
2023/05/12 12:11:20;;;;;;;9.23;7.05;;;;;;;;;;5137304;27;20168;-84
2023/05/12 12:13:57;;;;;;;8.55;7.20;;;;;;;;;;5152548;27;20043;-82
2023/05/12 12:16:26;;;;;;;8.52;7.15;;;;;;;;;;5128769;27;20039;-79
2023/05/12 12:18:53;;;;;;;9.10;8.20;;;;;;;;;;5119854;27;20047;-84
2023/05/12 12:21:20;;;;;;;12.25;9.00;;;;;;;;;;5120357;27;20078;-82
2023/05/12 12:23:46;;;;;;;10.90;9.50;;;;;;;;;;5136317;27;20038;-80
2023/05/12 12:26:15;;;;;;;12.52;10.60;;;;;;;;;;5132433;27;20403;-82
2023/05/12 12:28:42;;;;;;;11.60;9.05;;;;;;;;;;5137029;27;20177;-82
2023/05/12 12:31:08;;;;;;;11.60;9.40;;;;;;;;;;5122306;27;20072;-83
2023/05/12 12:33:34;;;;;;;10.30;7.20;;;;;;;;;;5155039;27;20043;-79
2023/05/12 12:36:00;;;;;;;8.23;7.13;;;;;;;;;;5151067;27;20096;-79
2023/05/12 12:38:26;;;;;;;11.50;7.97;;;;;;;;;;5139444;27;20110;-82
2023/05/12 12:40:53;;;;;;;9.18;7.65;;;;;;;;;;5115437;27;20127;-82
2023/05/12 12:43:19;;;;;;;14.13;7.50;;;;;;;;;;5129378;27;20035;-75
2023/05/12 12:45:45;;;;;;;10.32;7.30;;;;;;;;;;5126102;27;20047;-75
2023/05/12 12:48:11;;;;;;;10.45;7.70;;;;;;;;;;5099470;27;20103;-74
2023/05/12 12:50:37;;;;;;;9.50;7.50;;;;;;;;;;5115359;27;20074;-84
2023/05/12 12:53:03;;;;;;;18.23;8.18;;;;;;;;;;5115469;27;20050;-69
2023/05/12 12:55:30;;;;;;;12.85;7.80;;;;;;;;;;5129499;27;20067;-71
2023/05/12 12:57:56;;;;;;;8.40;5.35;;;;;;;;;;5134309;27;20047;-72
2023/05/12 13:00:23;;;;;;;6.40;5.07;;;;;;;;;;5154697;27;20455;-71
2023/05/12 13:02:50;;;;;;;6.82;5.07;;;;;;;;;;5136248;27;20391;-70
2023/05/12 13:05:16;;;;;;;7.40;4.35;;;;;;;;;;5128831;27;20042;-81
2023/05/12 13:07:42;;;;;;;8.13;4.82;;;;;;;;;;5095101;27;20121;-82
2023/05/12 13:10:08;;;;;;;7.75;5.00;;;;;;;;;;5150367;27;20477;-81
2023/05/12 13:12:35;;;;;;;5.65;4.80;;;;;;;;;;5114634;27;20058;-80
2023/05/12 13:15:01;;;;;;;5.68;4.35;;;;;;;;;;5146855;27;20091;-77
2023/05/12 13:17:28;;;;;;;10.43;4.25;;;;;;;;;;5134940;27;20086;-79
2023/05/12 13:19:54;;;;;;;9.60;4.43;;;;;;;;;;5118007;27;20070;-81
2023/05/12 13:22:20;;;;;;;6.78;4.68;;;;;;;;;;5135722;27;20045;-74
2023/05/12 13:24:47;;;;;;;5.55;3.78;;;;;;;;;;5135247;27;20117;-75
2023/05/12 13:27:13;;;;;;;6.40;4.35;;;;;;;;;;5133527;27;20115;-74
2023/05/12 13:29:40;;;;;;;7.55;4.25;;;;;;;;;;5124821;27;20049;-73
2023/05/12 13:32:07;;;;;;;6.50;3.47;;;;;;;;;;5135260;27;20057;-73
2023/05/12 13:34:33;;;;;;;9.73;3.90;;;;;;;;;;5098772;28;20051;-78
2023/05/12 13:36:59;;;;;;;6.60;4.50;;;;;;;;;;5127273;27;20034;-71
2023/05/12 13:39:25;;;;;;;5.35;3.67;;;;;;;;;;5129975;27;20031;-71
2023/05/12 13:41:51;;;;;;;4.28;3.30;;;;;;;;;;5148174;27;20039;-72
2023/05/12 13:44:18;;;;;;;4.78;3.28;;;;;;;;;;5110368;27;20086;-72
2023/05/12 13:46:44;;;;;;;6.32;3.15;;;;;;;;;;5135158;27;20038;-73
2023/05/12 13:49:11;;;;;;;6.80;3.10;;;;;;;;;;5153563;27;20142;-73
2023/05/12 13:51:37;;;;;;;7.25;3.33;;;;;;;;;;5102749;27;20058;-74
2023/05/12 13:54:04;;;;;;;5.32;3.13;;;;;;;;;;5124058;27;20417;-78
2023/05/12 13:56:30;;;;;;;6.60;3.60;;;;;;;;;;5135831;27;20141;-82
2023/05/12 13:58:57;;;;;;;4.65;2.85;;;;;;;;;;5136290;27;20039;-81
2023/05/12 14:01:23;;;;;;;6.13;3.15;;;;;;;;;;5152651;27;20051;-79
2023/05/12 14:03:49;;;;;;;5.55;3.05;;;;;;;;;;5134478;27;20529;-80
2023/05/12 14:06:15;;;;;;;5.05;3.10;;;;;;;;;;5099240;28;20127;-80
2023/05/12 14:08:42;;;;;;;4.32;3.10;;;;;;;;;;5112486;27;20043;-85
2023/05/12 14:11:08;;;;;;;3.67;3.08;;;;;;;;;;5124477;27;20047;-83
2023/05/12 14:13:34;;;;;;;3.95;2.60;;;;;;;;;;5154177;27;20517;-79
2023/05/12 14:16:01;;;;;;;4.25;2.90;;;;;;;;;;5127493;27;20039;-81
2023/05/12 14:18:27;;;;;;;6.57;3.25;;;;;;;;;;5124023;27;20091;-81
2023/05/12 14:20:54;;;;;;;6.05;3.05;;;;;;;;;;5111816;27;20043;-82